Time;durP1;ratioP1;P1;durP2;ratioP2;P2;SDS_P1;SDS_P2;PMS_P1;PMS_P2;Temp;Humidity;BMP_temperature;BMP_pressure;BME280_temperature;BME280_humidity;BME280_pressure;Samples;Min_cycle;Max_cycle;Signal;HPM_P1;HPM_P2
2023/09/27 00:00:09;;;;;;;15.37;5.53;;;;;;;21.34;71.06;99770.94;5093752;28;20187;-68
2023/09/27 00:02:35;;;;;;;13.30;5.07;;;;;;;21.17;71.88;99764.88;5093355;28;20188;-68
2023/09/27 00:05:06;;;;;;;5.33;4.83;;;;;;;20.96;72.64;99771.16;5093523;28;20670;-68
2023/09/27 00:07:33;;;;;;;9.27;4.80;;;;;;;20.86;72.77;99765.63;5076890;28;20271;-67
2023/09/27 00:10:00;;;;;;;9.00;5.37;;;;;;;20.77;73.30;99764.47;5072886;28;20265;-67
2023/09/27 00:12:28;;;;;;;6.13;4.43;;;;;;;20.64;73.30;99762.16;5072973;28;20217;-68
2023/09/27 00:14:55;;;;;;;7.43;4.87;;;;;;;20.46;74.27;99757.94;5072685;28;20282;-68
2023/09/27 00:17:22;;;;;;;6.63;4.77;;;;;;;20.43;74.06;99763.03;5088041;28;20644;-68
2023/09/27 00:19:49;;;;;;;7.90;4.77;;;;;;;20.32;74.81;99755.88;5092643;28;20559;-68
2023/09/27 00:22:16;;;;;;;13.97;4.60;;;;;;;20.20;74.74;99757.88;5093030;28;20590;-67
2023/09/27 00:24:43;;;;;;;9.60;4.60;;;;;;;20.09;74.54;99756.94;5091528;28;20191;-69
2023/09/27 00:27:10;;;;;;;17.17;4.90;;;;;;;20.04;75.52;99758.72;5092980;28;20199;-69
2023/09/27 00:29:39;;;;;;;9.77;5.00;;;;;;;20.01;75.48;99740.38;5092948;28;20221;-68
2023/09/27 00:32:05;;;;;;;6.97;4.53;;;;;;;20.01;75.19;99759.25;5092359;28;20572;-68
2023/09/27 00:34:32;;;;;;;14.33;4.73;;;;;;;20.00;75.33;99753.03;5083533;28;20188;-68
2023/09/27 00:36:59;;;;;;;12.97;4.60;;;;;;;19.95;75.14;99750.28;5072026;28;20292;-69
2023/09/27 00:39:26;;;;;;;8.33;4.80;;;;;;;19.76;75.83;99748.09;5072569;28;20192;-68
2023/09/27 00:41:52;;;;;;;9.53;4.43;;;;;;;19.77;75.99;99745.16;5072922;28;20227;-68
2023/09/27 00:44:19;;;;;;;6.90;4.67;;;;;;;19.85;75.82;99739.34;5076982;28;20199;-69
2023/09/27 00:46:48;;;;;;;7.20;4.30;;;;;;;19.88;75.67;99740.72;5092614;28;20199;-68
2023/09/27 00:49:16;;;;;;;7.87;4.30;;;;;;;19.80;75.83;99739.28;5092701;28;20256;-69
2023/09/27 00:51:44;;;;;;;6.50;4.47;;;;;;;19.81;75.73;99737.41;5092713;28;20191;-69
2023/09/27 00:54:12;;;;;;;10.47;4.50;;;;;;;19.74;76.06;99742.16;5074183;28;20230;-69
2023/09/27 00:56:39;;;;;;;7.00;4.80;;;;;;;19.77;76.03;99741.69;5071593;28;20580;-69
2023/09/27 00:59:07;;;;;;;8.60;4.57;;;;;;;19.79;75.95;99742.22;5071891;28;20733;-69
2023/09/27 01:01:34;;;;;;;6.87;4.40;;;;;;;19.76;76.08;99740.00;5071843;28;20196;-69
2023/09/27 01:04:03;;;;;;;5.43;4.23;;;;;;;19.75;76.25;99738.38;5086903;28;20257;-69
2023/09/27 01:06:30;;;;;;;7.13;4.20;;;;;;;19.71;76.19;99734.56;5092456;28;20199;-68
2023/09/27 01:08:57;;;;;;;7.70;4.57;;;;;;;19.64;76.26;99733.94;5076396;28;20190;-68
2023/09/27 01:11:24;;;;;;;5.77;4.20;;;;;;;19.68;76.48;99733.19;5071540;28;20196;-68
2023/09/27 01:13:51;;;;;;;9.30;4.50;;;;;;;19.73;76.17;99735.94;5084491;28;20278;-68
2023/09/27 01:16:18;;;;;;;13.40;5.13;;;;;;;19.73;76.09;99729.75;5091618;28;20238;-68
2023/09/27 01:18:44;;;;;;;10.23;4.80;;;;;;;19.68;76.43;99732.34;5091503;28;20249;-68
2023/09/27 01:21:13;;;;;;;10.10;5.17;;;;;;;19.73;76.08;99735.16;5086315;28;20246;-69
2023/09/27 01:23:41;;;;;;;12.23;5.03;;;;;;;19.78;75.96;99735.22;5070963;28;20204;-68
2023/09/27 01:26:11;;;;;;;7.43;4.33;;;;;;;19.84;75.84;99731.50;5071333;28;20282;-68
2023/09/27 01:28:41;;;;;;;6.80;4.53;;;;;;;19.86;75.79;99729.38;5070471;28;20747;-68
2023/09/27 01:31:07;;;;;;;26.60;4.77;;;;;;;19.88;75.61;99732.63;5074799;28;20214;-68
2023/09/27 01:33:34;;;;;;;10.30;5.00;;;;;;;19.93;75.44;99730.03;5091030;28;20187;-68
2023/09/27 01:36:02;;;;;;;9.83;5.60;;;;;;;19.94;75.26;99726.25;5091114;28;20654;-68
2023/09/27 01:38:29;;;;;;;10.33;5.27;;;;;;;19.95;75.26;99734.09;5090895;28;20244;-68
2023/09/27 01:40:57;;;;;;;9.57;4.83;;;;;;;19.92;75.50;99731.06;5089073;28;20288;-68
2023/09/27 01:43:24;;;;;;;11.27;5.30;;;;;;;19.92;75.67;99733.75;5071233;28;20275;-68
2023/09/27 01:45:52;;;;;;;19.20;6.17;;;;;;;19.90;75.42;99730.50;5071086;28;20580;-68
2023/09/27 01:48:19;;;;;;;26.43;6.30;;;;;;;19.85;76.34;99725.88;5071796;28;20317;-69
2023/09/27 01:50:46;;;;;;;22.53;6.17;;;;;;;19.79;76.55;99729.56;5071695;28;20192;-68
2023/09/27 01:53:12;;;;;;;14.37;5.40;;;;;;;19.81;76.07;99734.72;5091900;28;20256;-68
2023/09/27 01:55:39;;;;;;;15.53;5.83;;;;;;;19.83;76.10;99729.88;5086055;28;20191;-68
2023/09/27 01:58:07;;;;;;;8.93;5.63;;;;;;;19.83;76.48;99735.28;5070975;28;20212;-69
2023/09/27 02:00:35;;;;;;;12.70;5.10;;;;;;;19.82;76.77;99728.25;5070914;28;20656;-68
2023/09/27 02:03:03;;;;;;;7.53;5.27;;;;;;;19.80;76.98;99727.66;5090297;28;20195;-69
2023/09/27 02:05:31;;;;;;;14.33;5.23;;;;;;;19.78;77.13;99719.03;5091547;28;20198;-69
2023/09/27 02:07:58;;;;;;;12.30;5.80;;;;;;;19.74;77.25;99721.44;5084413;28;20250;-69
2023/09/27 02:10:25;;;;;;;9.60;5.80;;;;;;;19.74;77.48;99723.28;5070969;28;20623;-70
2023/09/27 02:12:52;;;;;;;13.50;5.73;;;;;;;19.74;77.32;99728.69;5070910;28;20195;-70
2023/09/27 02:15:20;;;;;;;10.93;5.80;;;;;;;19.74;77.25;99726.00;5070800;28;20225;-69
2023/09/27 02:17:46;;;;;;;11.70;5.67;;;;;;;19.68;77.64;99721.56;5071104;28;20216;-69
2023/09/27 02:20:17;;;;;;;11.57;5.67;;;;;;;19.58;77.80;99716.06;5070973;28;20222;-69
2023/09/27 02:22:46;;;;;;;10.10;5.43;;;;;;;19.59;78.04;99723.06;5071112;28;20245;-70
2023/09/27 02:25:14;;;;;;;7.93;5.43;;;;;;;19.58;78.52;99721.44;5071034;28;20191;-70
2023/09/27 02:27:42;;;;;;;15.90;6.43;;;;;;;19.58;77.99;99721.44;5071087;28;20215;-69
2023/09/27 02:30:11;;;;;;;16.07;6.30;;;;;;;19.49;78.37;99717.56;5070862;28;20192;-70
2023/09/27 02:32:41;;;;;;;10.60;6.63;;;;;;;19.47;78.54;99725.06;5070794;28;20285;-70
2023/09/27 02:35:09;;;;;;;15.30;6.60;;;;;;;19.37;79.00;99716.84;5074476;28;20278;-70
2023/09/27 02:37:36;;;;;;;8.67;6.07;;;;;;;19.33;78.96;99724.59;5074786;28;20261;-70
2023/09/27 02:40:11;;;;;;;10.57;5.87;;;;;;;19.29;79.08;99725.34;5074353;28;20196;-70
2023/09/27 02:42:38;;;;;;;10.30;6.30;;;;;;;19.27;78.78;99724.75;5075087;28;20236;-70
2023/09/27 02:45:07;;;;;;;19.23;6.70;;;;;;;19.17;79.02;99720.00;5074257;28;20549;-69
2023/09/27 02:47:34;;;;;;;13.33;6.83;;;;;;;19.13;78.93;99724.25;5074686;28;20282;-68
2023/09/27 02:50:04;;;;;;;7.47;6.73;;;;;;;19.14;79.33;99725.06;5074084;28;20204;-69
2023/09/27 02:52:31;;;;;;;13.37;7.30;;;;;;;19.13;79.25;99728.81;5074350;28;20193;-70
2023/09/27 02:54:58;;;;;;;17.00;6.63;;;;;;;19.08;79.28;99740.31;5073850;28;20196;-70
2023/09/27 02:57:24;;;;;;;11.00;6.90;;;;;;;19.12;79.08;99737.97;5074047;28;20703;-68
2023/09/27 02:59:51;;;;;;;19.00;7.50;;;;;;;19.17;78.94;99738.88;5074066;28;20281;-68
2023/09/27 03:02:20;;;;;;;9.53;7.00;;;;;;;19.17;79.24;99740.72;5074047;28;20198;-68
2023/09/27 03:04:47;;;;;;;20.23;7.27;;;;;;;19.16;79.18;99734.53;5074084;28;20392;-68
2023/09/27 03:07:15;;;;;;;12.67;6.30;;;;;;;19.15;79.43;99732.91;5074786;28;20208;-68
2023/09/27 03:09:42;;;;;;;12.43;6.60;;;;;;;19.17;79.42;99735.34;5094403;28;20191;-68
2023/09/27 03:12:08;;;;;;;9.23;7.00;;;;;;;19.19;79.59;99744.00;5094022;28;20192;-68
2023/09/27 03:14:35;;;;;;;14.23;6.43;;;;;;;19.20;79.26;99738.34;5093821;28;20251;-67
2023/09/27 03:17:02;;;;;;;14.03;7.20;;;;;;;19.20;79.24;99735.66;5094072;28;20281;-68
2023/09/27 03:19:29;;;;;;;12.37;7.60;;;;;;;19.21;79.39;99741.88;5094051;28;20212;-68
2023/09/27 03:21:56;;;;;;;12.93;6.97;;;;;;;19.20;79.66;99748.34;5081205;28;20200;-68
2023/09/27 03:24:25;;;;;;;12.50;6.90;;;;;;;19.15;79.42;99748.25;5073103;28;20199;-68
2023/09/27 03:26:52;;;;;;;18.73;7.27;;;;;;;19.19;79.29;99754.78;5072879;28;20670;-68
2023/09/27 03:29:18;;;;;;;14.33;7.17;;;;;;;19.15;79.30;99753.66;5073108;28;20253;-68
2023/09/27 03:31:45;;;;;;;14.67;7.27;;;;;;;19.10;79.60;99745.47;5073052;28;20658;-68
2023/09/27 03:34:12;;;;;;;11.73;6.90;;;;;;;19.13;79.47;99756.56;5073537;28;20207;-68
2023/09/27 03:36:39;;;;;;;16.27;7.33;;;;;;;19.06;79.42;99749.69;5072814;28;20648;-68
2023/09/27 03:39:05;;;;;;;12.10;7.90;;;;;;;19.06;79.73;99755.09;5073883;28;20191;-68
2023/09/27 03:41:33;;;;;;;12.03;6.90;;;;;;;19.02;80.51;99759.31;5072787;28;20225;-69
2023/09/27 03:44:00;;;;;;;17.43;7.00;;;;;;;19.01;80.15;99757.69;5072747;28;20245;-69
2023/09/27 03:46:29;;;;;;;13.90;6.93;;;;;;;18.99;79.82;99765.22;5071485;28;20740;-68
2023/09/27 03:48:56;;;;;;;15.50;6.77;;;;;;;18.98;80.18;99763.56;5072551;28;20550;-68
2023/09/27 03:51:27;;;;;;;7.87;6.07;;;;;;;18.94;79.68;99759.72;5072686;28;20261;-68
2023/09/27 03:53:53;;;;;;;19.77;6.30;;;;;;;18.78;80.86;99757.84;5072845;28;20212;-68
2023/09/27 03:56:20;;;;;;;15.70;7.13;;;;;;;18.73;80.99;99760.44;5073118;28;20199;-69
2023/09/27 03:58:48;;;;;;;14.70;6.70;;;;;;;18.70;81.24;99756.34;5072707;28;20221;-68
2023/09/27 04:01:15;;;;;;;34.93;8.33;;;;;;;18.64;81.59;99759.19;5078571;28;20236;-68
2023/09/27 04:03:42;;;;;;;18.50;7.07;;;;;;;18.59;81.52;99765.28;5092377;28;20198;-68
2023/09/27 04:06:09;;;;;;;15.03;6.03;;;;;;;18.62;81.81;99764.81;5092897;28;20200;-68
2023/09/27 04:08:35;;;;;;;25.37;7.87;;;;;;;18.66;81.72;99759.78;5079761;28;20256;-68
2023/09/27 04:11:05;;;;;;;28.20;7.67;;;;;;;18.71;81.02;99762.56;5076460;28;20551;-69
2023/09/27 04:13:32;;;;;;;12.20;7.00;;;;;;;18.67;81.05;99766.78;5092457;28;20191;-69
2023/09/27 04:16:00;;;;;;;11.27;6.83;;;;;;;18.55;81.19;99774.94;5093402;28;20284;-70
2023/09/27 04:18:28;;;;;;;12.93;6.97;;;;;;;18.47;81.66;99779.88;5092946;28;20279;-69
2023/09/27 04:20:54;;;;;;;16.43;6.77;;;;;;;18.53;81.60;99784.28;5089754;28;20282;-69
2023/09/27 04:23:21;;;;;;;22.73;7.50;;;;;;;18.59;81.18;99794.88;5072424;28;20663;-69
2023/09/27 04:25:48;;;;;;;15.53;7.27;;;;;;;18.57;80.70;99780.03;5072157;28;20655;-69
2023/09/27 04:28:14;;;;;;;11.60;6.63;;;;;;;18.49;80.89;99786.63;5072500;28;20665;-71
2023/09/27 04:30:41;;;;;;;22.27;7.73;;;;;;;18.46;81.53;99783.63;5072606;28;20291;-71
2023/09/27 04:33:09;;;;;;;24.60;7.63;;;;;;;18.46;81.43;99787.09;5092135;28;20195;-70
2023/09/27 04:35:36;;;;;;;13.70;7.17;;;;;;;18.49;81.14;99785.81;5092596;28;20190;-69
2023/09/27 04:38:04;;;;;;;16.53;6.63;;;;;;;18.55;81.15;99782.19;5092488;28;20301;-70
2023/09/27 04:40:30;;;;;;;27.57;7.13;;;;;;;18.52;81.46;99785.34;5092325;28;20278;-69
2023/09/27 04:42:57;;;;;;;37.83;7.80;;;;;;;18.55;81.49;99791.06;5073590;28;20192;-69
2023/09/27 04:45:24;;;;;;;22.87;7.50;;;;;;;18.56;81.48;99797.25;5072119;28;20188;-70
2023/09/27 04:47:50;;;;;;;17.23;7.13;;;;;;;18.61;80.98;99800.03;5072007;28;20242;-72
2023/09/27 04:50:19;;;;;;;10.70;6.50;;;;;;;18.66;81.00;99797.47;5080266;28;20187;-69
2023/09/27 04:52:45;;;;;;;16.27;6.60;;;;;;;18.71;80.58;99784.91;5091335;28;20192;-70
2023/09/27 04:55:13;;;;;;;12.83;6.20;;;;;;;18.99;79.46;99802.91;5092245;28;20247;-70
2023/09/27 04:57:40;;;;;;;14.63;6.23;;;;;;;19.22;79.39;99794.69;5090118;28;20308;-69
2023/09/27 05:00:14;;;;;;;18.90;6.20;;;;;;;19.33;78.12;99805.44;5090334;28;20195;-69
2023/09/27 05:02:40;;;;;;;11.83;5.60;;;;;;;19.54;77.45;99803.84;5091049;28;20241;-69
2023/09/27 05:05:09;;;;;;;11.07;5.53;;;;;;;19.96;77.54;99799.63;5091294;28;20197;-68
2023/09/27 05:07:37;;;;;;;7.53;4.90;;;;;;;20.25;75.72;99809.19;5087972;28;20271;-68
2023/09/27 05:10:04;;;;;;;18.03;6.17;;;;;;;20.25;75.99;99809.19;5073797;28;20196;-68
2023/09/27 05:12:31;;;;;;;19.13;6.40;;;;;;;20.20;74.19;99807.28;5091302;28;20198;-68
2023/09/27 05:14:58;;;;;;;19.13;6.37;;;;;;;20.27;74.75;99807.91;5089756;28;20192;-69
2023/09/27 05:17:25;;;;;;;7.73;5.87;;;;;;;20.32;75.43;99793.66;5091022;28;20314;-68
2023/09/27 05:19:51;;;;;;;9.80;6.23;;;;;;;20.74;72.79;99805.47;5080591;28;20202;-68
2023/09/27 05:22:19;;;;;;;12.60;5.80;;;;;;;21.19;71.42;99811.34;5074880;28;20249;-68
2023/09/27 05:24:47;;;;;;;27.03;7.10;;;;;;;21.24;70.21;99824.91;5078940;28;20199;-68
2023/09/27 05:27:15;;;;;;;9.07;5.73;;;;;;;21.15;70.35;99815.63;5071129;28;20220;-68
2023/09/27 05:29:42;;;;;;;12.23;5.73;;;;;;;21.11;70.34;99821.81;5070498;28;20188;-68
2023/09/27 05:32:09;;;;;;;11.37;5.60;;;;;;;20.92;70.74;99829.47;5070735;28;20638;-68
2023/09/27 05:34:36;;;;;;;13.10;5.63;;;;;;;20.67;71.93;99823.75;5070676;28;20227;-68
2023/09/27 05:37:02;;;;;;;12.13;6.03;;;;;;;20.75;71.67;99825.19;5070320;28;20188;-69
2023/09/27 05:39:29;;;;;;;13.40;5.33;;;;;;;20.98;71.16;99831.13;5071070;28;20200;-68
2023/09/27 05:41:57;;;;;;;12.27;6.07;;;;;;;21.26;72.13;99836.28;5073342;28;20652;-67
2023/09/27 05:44:24;;;;;;;12.90;5.97;;;;;;;21.93;69.75;99840.06;5079432;28;20250;-68
2023/09/27 05:46:51;;;;;;;13.87;5.60;;;;;;;22.58;66.09;99848.53;5079358;28;20192;-68
2023/09/27 05:49:18;;;;;;;16.33;5.67;;;;;;;23.02;63.95;99848.94;5080462;28;20191;-68
2023/09/27 05:51:45;;;;;;;18.90;5.47;;;;;;;23.18;62.67;99853.31;5082887;28;20187;-68
2023/09/27 05:54:12;;;;;;;12.63;5.50;;;;;;;23.24;61.83;99863.91;5082987;28;20207;-68
2023/09/27 05:56:38;;;;;;;12.57;5.10;;;;;;;23.15;62.03;99868.22;5078092;28;20197;-70
2023/09/27 05:59:08;;;;;;;8.67;5.00;;;;;;;23.47;62.24;99868.00;5072654;28;20216;-74
2023/09/27 06:01:35;;;;;;;11.57;4.80;;;;;;;23.81;61.58;99878.03;5080041;28;20234;-71
2023/09/27 06:04:02;;;;;;;7.13;4.23;;;;;;;24.09;59.06;99874.78;5079610;28;20191;-68
2023/09/27 06:06:30;;;;;;;16.00;5.43;;;;;;;24.20;57.86;99884.53;5078510;28;20201;-68
2023/09/27 06:08:56;;;;;;;22.03;4.93;;;;;;;24.38;57.66;99880.44;5079992;28;20228;-67
2023/09/27 06:11:23;;;;;;;15.03;5.30;;;;;;;24.36;58.24;99882.59;5092082;28;20246;-68
2023/09/27 06:13:50;;;;;;;15.63;5.00;;;;;;;24.47;56.61;99890.44;5087486;28;20199;-68
2023/09/27 06:16:19;;;;;;;15.93;4.70;;;;;;;24.36;58.68;99877.16;5080537;28;20211;-69
2023/09/27 06:18:46;;;;;;;6.27;4.67;;;;;;;24.78;58.61;99881.09;5078258;28;20204;-71
2023/09/27 06:21:13;;;;;;;12.17;4.53;;;;;;;25.21;56.56;99884.97;5083922;28;20197;-70
2023/09/27 06:23:40;;;;;;;14.97;5.17;;;;;;;25.71;54.17;99894.66;5086853;28;20274;-68
2023/09/27 06:26:08;;;;;;;9.97;5.23;;;;;;;25.86;54.27;99880.94;5083961;28;20195;-68
2023/09/27 06:28:36;;;;;;;12.67;5.37;;;;;;;25.87;53.24;99896.16;5083894;28;20191;-69
2023/09/27 06:31:04;;;;;;;24.50;5.70;;;;;;;25.87;52.59;99893.44;5083386;28;20672;-69
2023/09/27 06:33:33;;;;;;;17.13;4.87;;;;;;;25.88;52.86;99895.09;5082172;28;20199;-67
2023/09/27 06:36:00;;;;;;;12.40;5.03;;;;;;;25.84;53.77;99894.03;5083478;28;20183;-66
2023/09/27 06:38:27;;;;;;;14.93;5.20;;;;;;;26.00;53.94;99890.13;5087499;28;20280;-66
2023/09/27 06:40:54;;;;;;;8.73;5.20;;;;;;;26.51;52.62;99888.47;5084576;28;20219;-66
2023/09/27 06:43:21;;;;;;;8.07;4.90;;;;;;;27.12;50.85;99894.81;5083811;28;20249;-66
2023/09/27 06:45:49;;;;;;;11.57;4.67;;;;;;;27.54;48.76;99889.28;5084074;28;20651;-65
2023/09/27 06:48:18;;;;;;;19.77;5.90;;;;;;;27.76;47.92;99889.47;5084102;28;20210;-65
2023/09/27 06:50:46;;;;;;;11.87;5.00;;;;;;;28.09;45.84;99888.38;5092536;28;20191;-66
2023/09/27 06:53:13;;;;;;;13.70;4.60;;;;;;;28.03;48.10;99875.91;5086796;28;20195;-66
2023/09/27 06:55:40;;;;;;;20.67;4.77;;;;;;;27.89;46.91;99877.81;5079831;28;20199;-66
2023/09/27 06:58:06;;;;;;;11.77;4.53;;;;;;;27.85;46.44;99882.25;5103075;28;20219;-68
2023/09/27 07:00:33;;;;;;;10.17;4.50;;;;;;;28.01;46.42;99878.16;5074448;28;20200;-65
2023/09/27 07:03:00;;;;;;;10.97;4.40;;;;;;;28.41;46.95;99874.66;5081285;28;20184;-66
2023/09/27 07:05:26;;;;;;;9.43;4.73;;;;;;;28.83;44.33;99885.28;5081352;28;20192;-69
2023/09/27 07:07:55;;;;;;;10.83;4.40;;;;;;;29.03;43.74;99876.69;5083638;28;20675;-66
2023/09/27 07:10:23;;;;;;;16.40;5.23;;;;;;;29.02;43.70;99872.31;5083045;28;20192;-67
2023/09/27 07:12:50;;;;;;;10.03;5.00;;;;;;;28.95;43.30;99885.59;5083038;28;20654;-67
2023/09/27 07:15:16;;;;;;;4.80;4.33;;;;;;;28.80;43.23;99883.16;5083827;28;20192;-68
2023/09/27 07:17:44;;;;;;;16.53;4.30;;;;;;;28.78;44.43;99885.38;5083557;28;20253;-69
2023/09/27 07:20:20;;;;;;;9.17;4.50;;;;;;;29.03;43.35;99887.63;5075700;28;20192;-69
2023/09/27 07:22:47;;;;;;;12.17;3.97;;;;;;;29.09;42.51;99886.38;5074264;28;20245;-67
2023/09/27 07:25:20;;;;;;;10.87;4.50;;;;;;;28.92;42.69;99881.50;5078461;28;20226;-68
2023/09/27 07:27:48;;;;;;;19.97;5.00;;;;;;;28.70;42.71;99877.88;5075731;28;20195;-69
2023/09/27 07:30:18;;;;;;;18.97;4.37;;;;;;;28.56;43.24;99875.19;5072910;28;20290;-69
2023/09/27 07:32:46;;;;;;;9.80;4.37;;;;;;;28.43;43.78;99875.19;5073719;28;20223;-68
2023/09/27 07:35:14;;;;;;;10.53;3.87;;;;;;;28.42;43.65;99881.75;5098289;28;20214;-69
2023/09/27 07:37:41;;;;;;;19.23;4.40;;;;;;;28.53;43.06;99888.63;5083804;28;20219;-68
2023/09/27 07:40:10;;;;;;;11.00;4.67;;;;;;;28.59;43.92;99881.97;5088069;28;20207;-75
2023/09/27 07:42:39;;;;;;;19.47;4.90;;;;;;;28.86;41.32;99884.66;5091115;28;20296;-68
2023/09/27 07:45:12;;;;;;;11.70;4.60;;;;;;;29.16;42.49;99873.88;5088930;28;20192;-74
2023/09/27 07:47:39;;;;;;;16.57;3.80;;;;;;;29.45;41.23;99883.63;5075741;28;20176;-68
2023/09/27 07:50:07;;;;;;;9.63;4.33;;;;;;;29.68;40.64;99883.34;5073441;28;20191;-70
2023/09/27 07:52:33;;;;;;;8.30;3.87;;;;;;;29.59;39.81;99879.75;5082954;28;20668;-68
2023/09/27 07:55:04;;;;;;;11.10;4.30;;;;;;;29.25;40.14;99890.41;5077791;28;20191;-68
2023/09/27 07:57:30;;;;;;;8.83;4.33;;;;;;;29.15;41.83;99879.66;5080560;28;20184;-68
2023/09/27 08:00:00;;;;;;;18.70;4.57;;;;;;;29.23;39.95;99880.88;5079154;28;20223;-68
2023/09/27 08:02:27;;;;;;;10.03;4.30;;;;;;;29.15;40.38;99879.66;5079130;28;20623;-67
2023/09/27 08:04:55;;;;;;;9.43;3.60;;;;;;;29.06;40.03;99876.03;5077394;28;20275;-67
2023/09/27 08:07:22;;;;;;;11.87;3.97;;;;;;;29.20;40.80;99874.88;5076380;28;20191;-67
2023/09/27 08:09:49;;;;;;;6.57;4.03;;;;;;;29.17;40.49;99877.44;5079925;28;20248;-67
2023/09/27 08:12:16;;;;;;;6.27;4.10;;;;;;;28.84;39.28;99878.69;5079849;28;20674;-67
2023/09/27 08:14:43;;;;;;;17.83;4.50;;;;;;;28.92;39.84;99886.97;5076761;28;20195;-68
2023/09/27 08:17:11;;;;;;;8.07;3.80;;;;;;;29.18;39.35;99887.25;5079024;28;20233;-67
2023/09/27 08:19:38;;;;;;;14.67;4.50;;;;;;;29.32;40.21;99887.22;5081508;28;20713;-67
2023/09/27 08:22:05;;;;;;;17.37;4.70;;;;;;;29.40;39.33;99881.84;5078157;28;20270;-67
2023/09/27 08:24:32;;;;;;;12.03;4.17;;;;;;;29.27;37.92;99894.44;5080081;28;20199;-67
2023/09/27 08:27:00;;;;;;;6.40;3.63;;;;;;;29.24;38.92;99894.25;5080668;28;20188;-66
2023/09/27 08:29:27;;;;;;;12.97;4.17;;;;;;;29.16;38.49;99898.53;5076679;28;20199;-66
2023/09/27 08:31:53;;;;;;;13.60;4.30;;;;;;;29.17;40.00;99891.13;5070534;28;20257;-67
2023/09/27 08:34:21;;;;;;;7.20;4.27;;;;;;;29.17;38.88;99889.22;5083103;28;20277;-67
2023/09/27 08:36:48;;;;;;;11.83;4.27;;;;;;;29.18;39.32;99881.78;5069331;28;20191;-67
2023/09/27 08:39:15;;;;;;;8.77;4.03;;;;;;;29.22;39.01;99882.00;5070655;28;20301;-67
2023/09/27 08:41:42;;;;;;;11.77;4.10;;;;;;;29.25;40.88;99879.44;5068972;28;20259;-66
2023/09/27 08:44:11;;;;;;;9.57;4.13;;;;;;;29.25;39.78;99879.44;5081184;28;20221;-67
2023/09/27 08:46:39;;;;;;;8.77;3.50;;;;;;;29.27;39.34;99884.63;5088757;28;20246;-67
2023/09/27 08:49:08;;;;;;;10.67;4.10;;;;;;;29.40;38.15;99881.84;5072367;28;21036;-68
2023/09/27 08:51:36;;;;;;;11.83;3.70;;;;;;;29.44;38.66;99882.84;5070676;28;20691;-68
2023/09/27 08:54:03;;;;;;;11.97;4.13;;;;;;;29.37;38.60;99871.50;5089077;28;20199;-67
2023/09/27 08:56:31;;;;;;;7.93;3.97;;;;;;;29.40;38.33;99881.84;5089726;28;20332;-66
2023/09/27 08:58:58;;;;;;;7.93;3.90;;;;;;;29.46;37.59;99874.28;5082900;28;20273;-67
2023/09/27 09:01:26;;;;;;;16.43;3.90;;;;;;;29.54;36.59;99881.75;5082917;28;20191;-66
2023/09/27 09:03:53;;;;;;;12.23;4.00;;;;;;;29.56;36.15;99874.84;5084127;28;20256;-67
2023/09/27 09:06:21;;;;;;;17.90;10.13;;;;;;;29.56;37.23;99874.84;5084547;28;20214;-67
2023/09/27 09:08:50;;;;;;;7.93;4.13;;;;;;;29.49;35.82;99877.25;5080941;28;20199;-66
2023/09/27 09:11:17;;;;;;;8.20;4.03;;;;;;;29.33;36.70;99875.97;5079457;28;20279;-67
2023/09/27 09:13:58;;;;;;;7.87;4.00;;;;;;;29.23;36.30;99882.50;5082774;28;20664;-66
2023/09/27 09:16:25;;;;;;;14.77;4.47;;;;;;;29.29;37.41;99875.78;5086135;28;20198;-67
2023/09/27 09:18:54;;;;;;;12.63;4.60;;;;;;;29.40;36.29;99870.91;5084594;28;20288;-67
2023/09/27 09:21:21;;;;;;;10.87;5.07;;;;;;;29.70;37.08;99863.88;5078505;28;20237;-67
2023/09/27 09:23:49;;;;;;;12.57;4.07;;;;;;;29.77;35.24;99873.28;5081193;28;20279;-67
2023/09/27 09:26:27;;;;;;;10.47;4.30;;;;;;;29.67;34.36;99865.31;5082384;28;20208;-67
2023/09/27 09:28:56;;;;;;;15.70;4.13;;;;;;;29.59;35.08;99866.06;5081889;28;20972;-67
2023/09/27 09:31:23;;;;;;;11.60;3.77;;;;;;;29.79;35.02;99879.25;5085839;28;20223;-68
2023/09/27 09:34:04;;;;;;;16.07;3.97;;;;;;;30.08;34.28;99871.34;5084820;28;20248;-66
2023/09/27 09:36:31;;;;;;;10.23;4.43;;;;;;;30.28;33.30;99870.03;5079302;28;20272;-66
2023/09/27 09:39:06;;;;;;;9.30;3.90;;;;;;;30.43;32.97;99870.44;5083899;28;20215;-67
2023/09/27 09:41:57;;;;;;;7.93;4.07;;;;;;;30.47;33.38;99873.34;5086322;28;20222;-68
2023/09/27 09:44:25;;;;;;;10.87;4.47;;;;;;;30.52;34.00;99854.81;5078607;28;20209;-68
2023/09/27 09:46:52;;;;;;;6.60;3.70;;;;;;;30.53;33.45;99855.63;5082700;28;20241;-67
2023/09/27 09:49:21;;;;;;;10.40;4.20;;;;;;;30.49;33.15;99863.66;5086727;28;20694;-66
2023/09/27 09:51:50;;;;;;;7.27;4.43;;;;;;;30.55;34.09;99859.66;5070939;28;20200;-67
2023/09/27 09:54:28;;;;;;;8.80;3.87;;;;;;;30.27;34.09;99847.31;5071808;28;20242;-67
2023/09/27 09:56:57;;;;;;;12.03;4.03;;;;;;;30.00;34.25;99858.41;5077508;28;20249;-66
2023/09/27 09:59:34;;;;;;;8.67;3.37;;;;;;;30.14;34.14;99853.69;5070752;28;20277;-65
2023/09/27 10:02:09;;;;;;;15.43;4.43;;;;;;;30.29;34.10;99845.03;5079923;28;20187;-66
2023/09/27 10:04:38;;;;;;;8.67;4.57;;;;;;;30.27;34.24;99841.81;5081087;28;20210;-67
2023/09/27 10:07:06;;;;;;;9.73;4.33;;;;;;;30.53;34.74;99841.91;5076119;28;20200;-66
2023/09/27 10:09:34;;;;;;;13.50;4.07;;;;;;;30.68;33.03;99845.00;5071120;28;20234;-66
2023/09/27 10:12:02;;;;;;;9.87;3.67;;;;;;;30.69;33.17;99843.09;5082128;28;20244;-67
2023/09/27 10:14:30;;;;;;;11.73;4.47;;;;;;;30.87;33.24;99833.78;5079851;28;20184;-66
2023/09/27 10:16:56;;;;;;;13.30;3.87;;;;;;;30.58;33.33;99831.56;5074066;28;20298;-71
2023/09/27 10:19:28;;;;;;;18.07;4.30;;;;;;;30.58;33.71;99826.09;5076629;28;20218;-66
2023/09/27 10:22:05;;;;;;;12.23;4.10;;;;;;;30.69;32.31;99826.63;5077430;28;20214;-66
2023/09/27 10:24:35;;;;;;;16.07;4.97;;;;;;;30.82;33.14;99826.50;5081347;28;20195;-63
2023/09/27 10:27:02;;;;;;;10.20;3.97;;;;;;;30.68;32.88;99814.84;5086956;28;20684;-63
2023/09/27 10:29:29;;;;;;;10.37;3.80;;;;;;;30.75;33.20;99803.41;5076637;28;20203;-63
2023/09/27 10:32:23;;;;;;;23.13;3.83;;;;;;;30.78;33.28;99798.09;5068460;28;20192;-64
2023/09/27 10:34:51;;;;;;;6.37;3.43;;;;;;;30.77;32.80;99799.22;5072482;28;20237;-64
2023/09/27 10:37:57;;;;;;;9.53;4.33;;;;;;;30.68;32.58;99792.91;5075858;28;20188;-64
2023/09/27 10:40:25;;;;;;;9.90;3.83;;;;;;;30.43;32.05;99796.41;5080267;28;20297;-65
2023/09/27 10:42:52;;;;;;;13.37;4.13;;;;;;;30.46;32.49;99790.25;5079939;28;20691;-64
2023/09/27 10:45:19;;;;;;;12.07;4.20;;;;;;;30.54;33.05;99786.72;5080680;28;20188;-64
2023/09/27 10:47:46;;;;;;;9.67;4.10;;;;;;;30.51;32.51;99787.38;5076098;28;20619;-64
2023/09/27 10:50:13;;;;;;;10.63;3.63;;;;;;;30.44;32.39;99792.53;5074109;28;20583;-64
2023/09/27 10:52:40;;;;;;;4.70;3.90;;;;;;;30.22;32.46;99787.16;5079613;28;20195;-64
2023/09/27 10:55:11;;;;;;;9.50;3.67;;;;;;;30.26;32.21;99777.16;5078768;28;20245;-65
2023/09/27 10:57:42;;;;;;;8.20;3.77;;;;;;;30.21;33.96;99771.81;5079452;28;20226;-65
2023/09/27 11:00:11;;;;;;;13.20;4.27;;;;;;;30.07;32.81;99771.09;5082929;28;20246;-66
2023/09/27 11:02:38;;;;;;;16.03;4.17;;;;;;;30.18;33.20;99772.47;5081749;28;20187;-64
2023/09/27 11:05:06;;;;;;;7.53;4.30;;;;;;;30.21;33.91;99762.78;5083336;28;20200;-64
2023/09/27 11:07:43;;;;;;;7.83;3.80;;;;;;;30.37;32.59;99759.25;5084313;28;20275;-64
2023/09/27 11:10:10;;;;;;;10.97;3.63;;;;;;;30.20;32.56;99753.75;5084371;28;20682;-63
2023/09/27 11:12:37;;;;;;;6.40;3.60;;;;;;;30.27;32.97;99745.88;5082392;28;20237;-65
2023/09/27 11:15:06;;;;;;;10.47;3.97;;;;;;;30.22;32.04;99746.03;5083695;28;20196;-64
2023/09/27 11:17:32;;;;;;;8.00;3.90;;;;;;;30.32;32.79;99748.47;5081886;28;20250;-63
2023/09/27 11:20:11;;;;;;;8.87;3.63;;;;;;;30.53;32.38;99745.94;5083943;28;20211;-64
2023/09/27 11:22:37;;;;;;;15.60;4.33;;;;;;;30.62;32.51;99742.03;5082720;28;20271;-65
2023/09/27 11:25:05;;;;;;;7.47;4.00;;;;;;;30.62;31.46;99738.50;5081532;28;20196;-66
2023/09/27 11:27:32;;;;;;;9.47;3.70;;;;;;;30.81;31.80;99728.88;5078634;28;20295;-66
2023/09/27 11:29:59;;;;;;;5.73;3.57;;;;;;;30.90;31.23;99728.88;5073614;28;20204;-66